sensor_id;sensor_type;location;lat;lon;timestamp;P1;durP1;ratioP1;P2;durP2;ratioP2
78308;SDS011;75657;42.022;21.356;2024-01-30T00:02:17;19.92;;;11.40;;
78308;SDS011;75657;42.022;21.356;2024-01-30T00:04:42;15.30;;;9.90;;
78308;SDS011;75657;42.022;21.356;2024-01-30T00:07:08;19.35;;;11.63;;
78308;SDS011;75657;42.022;21.356;2024-01-30T00:09:33;16.35;;;8.85;;
78308;SDS011;75657;42.022;21.356;2024-01-30T00:11:59;12.82;;;7.30;;
78308;SDS011;75657;42.022;21.356;2024-01-30T00:14:24;10.80;;;5.90;;
78308;SDS011;75657;42.022;21.356;2024-01-30T00:16:50;14.68;;;7.05;;
78308;SDS011;75657;42.022;21.356;2024-01-30T00:19:16;10.98;;;6.97;;
78308;SDS011;75657;42.022;21.356;2024-01-30T00:21:41;12.60;;;7.57;;
78308;SDS011;75657;42.022;21.356;2024-01-30T00:24:07;15.00;;;7.60;;
78308;SDS011;75657;42.022;21.356;2024-01-30T00:26:33;15.23;;;8.43;;
78308;SDS011;75657;42.022;21.356;2024-01-30T00:28:58;13.75;;;8.15;;
78308;SDS011;75657;42.022;21.356;2024-01-30T00:31:24;16.23;;;8.40;;
78308;SDS011;75657;42.022;21.356;2024-01-30T00:33:50;15.02;;;7.63;;
78308;SDS011;75657;42.022;21.356;2024-01-30T00:36:15;14.50;;;9.45;;
78308;SDS011;75657;42.022;21.356;2024-01-30T00:38:40;14.15;;;8.85;;
78308;SDS011;75657;42.022;21.356;2024-01-30T00:41:07;16.98;;;9.35;;
78308;SDS011;75657;42.022;21.356;2024-01-30T00:43:33;13.90;;;9.10;;
78308;SDS011;75657;42.022;21.356;2024-01-30T00:45:59;11.38;;;7.28;;
78308;SDS011;75657;42.022;21.356;2024-01-30T00:48:24;16.23;;;7.93;;
78308;SDS011;75657;42.022;21.356;2024-01-30T00:50:50;13.93;;;8.48;;
78308;SDS011;75657;42.022;21.356;2024-01-30T00:53:15;12.15;;;7.15;;
78308;SDS011;75657;42.022;21.356;2024-01-30T00:55:41;12.43;;;6.85;;
78308;SDS011;75657;42.022;21.356;2024-01-30T00:58:06;12.52;;;7.45;;
78308;SDS011;75657;42.022;21.356;2024-01-30T01:00:32;13.75;;;7.68;;
78308;SDS011;75657;42.022;21.356;2024-01-30T01:02:58;11.80;;;6.55;;
78308;SDS011;75657;42.022;21.356;2024-01-30T01:05:24;12.00;;;6.70;;
78308;SDS011;75657;42.022;21.356;2024-01-30T01:07:49;13.52;;;8.20;;
78308;SDS011;75657;42.022;21.356;2024-01-30T01:10:18;15.40;;;8.40;;
78308;SDS011;75657;42.022;21.356;2024-01-30T01:12:44;14.07;;;8.65;;
78308;SDS011;75657;42.022;21.356;2024-01-30T01:15:10;20.38;;;10.60;;
78308;SDS011;75657;42.022;21.356;2024-01-30T01:17:39;26.13;;;13.85;;
78308;SDS011;75657;42.022;21.356;2024-01-30T01:20:06;31.20;;;15.73;;
78308;SDS011;75657;42.022;21.356;2024-01-30T01:22:32;24.17;;;12.60;;
78308;SDS011;75657;42.022;21.356;2024-01-30T01:24:58;20.10;;;12.13;;
78308;SDS011;75657;42.022;21.356;2024-01-30T01:27:24;19.45;;;10.57;;
78308;SDS011;75657;42.022;21.356;2024-01-30T01:29:50;20.38;;;11.25;;
78308;SDS011;75657;42.022;21.356;2024-01-30T01:32:15;18.15;;;10.43;;
78308;SDS011;75657;42.022;21.356;2024-01-30T01:34:41;23.67;;;12.35;;
78308;SDS011;75657;42.022;21.356;2024-01-30T01:37:06;24.17;;;12.25;;
78308;SDS011;75657;42.022;21.356;2024-01-30T01:39:32;20.65;;;10.90;;
78308;SDS011;75657;42.022;21.356;2024-01-30T01:41:58;22.92;;;12.57;;
78308;SDS011;75657;42.022;21.356;2024-01-30T01:44:23;27.92;;;12.60;;
78308;SDS011;75657;42.022;21.356;2024-01-30T01:46:49;20.30;;;11.93;;
78308;SDS011;75657;42.022;21.356;2024-01-30T01:49:15;27.60;;;11.82;;
78308;SDS011;75657;42.022;21.356;2024-01-30T01:51:40;18.83;;;10.73;;
78308;SDS011;75657;42.022;21.356;2024-01-30T01:54:07;22.25;;;11.90;;
78308;SDS011;75657;42.022;21.356;2024-01-30T01:56:34;24.83;;;12.05;;
78308;SDS011;75657;42.022;21.356;2024-01-30T01:59:04;19.00;;;10.07;;
78308;SDS011;75657;42.022;21.356;2024-01-30T02:01:32;22.60;;;10.15;;
78308;SDS011;75657;42.022;21.356;2024-01-30T02:03:58;14.95;;;8.30;;
78308;SDS011;75657;42.022;21.356;2024-01-30T02:06:24;11.15;;;7.00;;
78308;SDS011;75657;42.022;21.356;2024-01-30T02:08:50;16.67;;;7.13;;
78308;SDS011;75657;42.022;21.356;2024-01-30T02:11:15;14.48;;;7.53;;
78308;SDS011;75657;42.022;21.356;2024-01-30T02:13:41;15.05;;;8.05;;
78308;SDS011;75657;42.022;21.356;2024-01-30T02:16:07;14.43;;;7.38;;
78308;SDS011;75657;42.022;21.356;2024-01-30T02:18:32;11.30;;;7.30;;
78308;SDS011;75657;42.022;21.356;2024-01-30T02:20:58;16.55;;;8.48;;
78308;SDS011;75657;42.022;21.356;2024-01-30T02:23:27;15.77;;;8.55;;
78308;SDS011;75657;42.022;21.356;2024-01-30T02:25:52;14.45;;;8.10;;
78308;SDS011;75657;42.022;21.356;2024-01-30T02:28:18;19.67;;;11.02;;
78308;SDS011;75657;42.022;21.356;2024-01-30T02:30:45;16.95;;;9.77;;
78308;SDS011;75657;42.022;21.356;2024-01-30T02:33:11;13.02;;;7.90;;
78308;SDS011;75657;42.022;21.356;2024-01-30T02:35:37;18.52;;;10.40;;
78308;SDS011;75657;42.022;21.356;2024-01-30T02:38:03;17.50;;;9.48;;
78308;SDS011;75657;42.022;21.356;2024-01-30T02:40:29;15.80;;;8.73;;
78308;SDS011;75657;42.022;21.356;2024-01-30T02:42:54;22.33;;;9.93;;
78308;SDS011;75657;42.022;21.356;2024-01-30T02:45:20;19.05;;;9.13;;
78308;SDS011;75657;42.022;21.356;2024-01-30T02:47:45;17.83;;;9.63;;
78308;SDS011;75657;42.022;21.356;2024-01-30T02:50:11;16.65;;;9.52;;
78308;SDS011;75657;42.022;21.356;2024-01-30T02:52:37;18.63;;;9.35;;
78308;SDS011;75657;42.022;21.356;2024-01-30T02:55:02;14.07;;;7.68;;
78308;SDS011;75657;42.022;21.356;2024-01-30T02:57:28;13.20;;;7.40;;
78308;SDS011;75657;42.022;21.356;2024-01-30T02:59:54;14.82;;;9.02;;
78308;SDS011;75657;42.022;21.356;2024-01-30T03:02:19;14.05;;;7.97;;
78308;SDS011;75657;42.022;21.356;2024-01-30T03:04:45;14.85;;;8.05;;
78308;SDS011;75657;42.022;21.356;2024-01-30T03:07:11;13.77;;;7.53;;
78308;SDS011;75657;42.022;21.356;2024-01-30T03:09:36;13.63;;;7.85;;
78308;SDS011;75657;42.022;21.356;2024-01-30T03:12:02;12.85;;;8.02;;
78308;SDS011;75657;42.022;21.356;2024-01-30T03:14:30;15.30;;;8.90;;
78308;SDS011;75657;42.022;21.356;2024-01-30T03:16:56;13.07;;;7.75;;
78308;SDS011;75657;42.022;21.356;2024-01-30T03:19:22;14.70;;;8.23;;
78308;SDS011;75657;42.022;21.356;2024-01-30T03:21:48;15.88;;;8.10;;
78308;SDS011;75657;42.022;21.356;2024-01-30T03:24:14;12.77;;;6.60;;
78308;SDS011;75657;42.022;21.356;2024-01-30T03:26:39;11.95;;;6.88;;
78308;SDS011;75657;42.022;21.356;2024-01-30T03:29:04;13.45;;;6.95;;
78308;SDS011;75657;42.022;21.356;2024-01-30T03:31:30;12.40;;;6.88;;
78308;SDS011;75657;42.022;21.356;2024-01-30T03:33:55;9.65;;;6.90;;
78308;SDS011;75657;42.022;21.356;2024-01-30T03:36:21;12.25;;;7.85;;
78308;SDS011;75657;42.022;21.356;2024-01-30T03:38:46;13.68;;;7.35;;
78308;SDS011;75657;42.022;21.356;2024-01-30T03:41:12;11.35;;;6.70;;
78308;SDS011;75657;42.022;21.356;2024-01-30T03:43:37;15.10;;;8.50;;
78308;SDS011;75657;42.022;21.356;2024-01-30T03:46:03;14.38;;;7.93;;
78308;SDS011;75657;42.022;21.356;2024-01-30T03:48:29;15.95;;;8.93;;
78308;SDS011;75657;42.022;21.356;2024-01-30T03:50:55;17.13;;;9.15;;
78308;SDS011;75657;42.022;21.356;2024-01-30T03:53:20;13.27;;;7.28;;
78308;SDS011;75657;42.022;21.356;2024-01-30T03:55:46;14.00;;;7.25;;
78308;SDS011;75657;42.022;21.356;2024-01-30T03:58:11;12.05;;;6.72;;
78308;SDS011;75657;42.022;21.356;2024-01-30T04:00:37;11.55;;;6.68;;
78308;SDS011;75657;42.022;21.356;2024-01-30T04:03:02;13.38;;;7.32;;
78308;SDS011;75657;42.022;21.356;2024-01-30T04:05:28;12.73;;;6.68;;
78308;SDS011;75657;42.022;21.356;2024-01-30T04:07:54;12.55;;;7.30;;
78308;SDS011;75657;42.022;21.356;2024-01-30T04:10:19;13.32;;;7.70;;
78308;SDS011;75657;42.022;21.356;2024-01-30T04:12:45;12.30;;;7.72;;
78308;SDS011;75657;42.022;21.356;2024-01-30T04:15:10;13.63;;;7.88;;
78308;SDS011;75657;42.022;21.356;2024-01-30T04:17:36;12.98;;;8.07;;
78308;SDS011;75657;42.022;21.356;2024-01-30T04:20:01;12.95;;;8.00;;
78308;SDS011;75657;42.022;21.356;2024-01-30T04:22:27;14.93;;;7.80;;
78308;SDS011;75657;42.022;21.356;2024-01-30T04:24:52;14.90;;;8.27;;
78308;SDS011;75657;42.022;21.356;2024-01-30T04:27:18;14.68;;;9.30;;
78308;SDS011;75657;42.022;21.356;2024-01-30T04:29:43;17.90;;;10.73;;
78308;SDS011;75657;42.022;21.356;2024-01-30T04:32:09;17.88;;;13.07;;
78308;SDS011;75657;42.022;21.356;2024-01-30T04:34:36;18.17;;;11.30;;
78308;SDS011;75657;42.022;21.356;2024-01-30T04:37:01;17.08;;;9.82;;
78308;SDS011;75657;42.022;21.356;2024-01-30T04:39:27;15.43;;;9.30;;
78308;SDS011;75657;42.022;21.356;2024-01-30T04:41:52;17.13;;;10.65;;
78308;SDS011;75657;42.022;21.356;2024-01-30T04:44:18;18.10;;;10.93;;
78308;SDS011;75657;42.022;21.356;2024-01-30T04:46:44;20.95;;;10.57;;
78308;SDS011;75657;42.022;21.356;2024-01-30T04:49:09;18.35;;;9.23;;
78308;SDS011;75657;42.022;21.356;2024-01-30T04:51:35;19.08;;;11.43;;
78308;SDS011;75657;42.022;21.356;2024-01-30T04:54:01;17.08;;;11.02;;
78308;SDS011;75657;42.022;21.356;2024-01-30T04:56:26;16.20;;;10.27;;
78308;SDS011;75657;42.022;21.356;2024-01-30T04:58:52;17.77;;;10.07;;
78308;SDS011;75657;42.022;21.356;2024-01-30T05:01:17;19.75;;;10.73;;
78308;SDS011;75657;42.022;21.356;2024-01-30T05:03:43;17.40;;;11.38;;
78308;SDS011;75657;42.022;21.356;2024-01-30T05:06:09;26.35;;;11.65;;
78308;SDS011;75657;42.022;21.356;2024-01-30T05:08:34;152.88;;;58.90;;
78308;SDS011;75657;42.022;21.356;2024-01-30T05:11:03;126.22;;;50.40;;
78308;SDS011;75657;42.022;21.356;2024-01-30T05:13:33;125.85;;;51.70;;
78308;SDS011;75657;42.022;21.356;2024-01-30T05:15:58;116.88;;;47.30;;
78308;SDS011;75657;42.022;21.356;2024-01-30T05:18:24;77.43;;;33.38;;
78308;SDS011;75657;42.022;21.356;2024-01-30T05:20:50;37.65;;;18.80;;
78308;SDS011;75657;42.022;21.356;2024-01-30T05:23:15;33.25;;;16.85;;
78308;SDS011;75657;42.022;21.356;2024-01-30T05:25:41;27.05;;;14.30;;
78308;SDS011;75657;42.022;21.356;2024-01-30T05:28:07;47.00;;;23.05;;
78308;SDS011;75657;42.022;21.356;2024-01-30T05:30:32;31.23;;;16.98;;
78308;SDS011;75657;42.022;21.356;2024-01-30T05:32:58;114.40;;;43.38;;
78308;SDS011;75657;42.022;21.356;2024-01-30T05:35:23;43.03;;;22.23;;
78308;SDS011;75657;42.022;21.356;2024-01-30T05:37:49;48.15;;;21.92;;
78308;SDS011;75657;42.022;21.356;2024-01-30T05:40:15;42.78;;;22.30;;
78308;SDS011;75657;42.022;21.356;2024-01-30T05:42:40;46.00;;;30.30;;
78308;SDS011;75657;42.022;21.356;2024-01-30T05:45:06;37.13;;;23.92;;
78308;SDS011;75657;42.022;21.356;2024-01-30T05:47:32;30.08;;;19.23;;
78308;SDS011;75657;42.022;21.356;2024-01-30T05:49:58;29.95;;;15.32;;
78308;SDS011;75657;42.022;21.356;2024-01-30T05:52:23;31.92;;;16.60;;
78308;SDS011;75657;42.022;21.356;2024-01-30T05:54:49;31.92;;;17.40;;
78308;SDS011;75657;42.022;21.356;2024-01-30T05:57:14;33.55;;;16.52;;
78308;SDS011;75657;42.022;21.356;2024-01-30T05:59:40;25.75;;;14.68;;
78308;SDS011;75657;42.022;21.356;2024-01-30T06:02:05;24.15;;;14.70;;
78308;SDS011;75657;42.022;21.356;2024-01-30T06:04:31;30.70;;;16.45;;
78308;SDS011;75657;42.022;21.356;2024-01-30T06:06:56;32.17;;;16.95;;
78308;SDS011;75657;42.022;21.356;2024-01-30T06:09:22;32.85;;;17.23;;
78308;SDS011;75657;42.022;21.356;2024-01-30T06:11:47;40.38;;;19.23;;
78308;SDS011;75657;42.022;21.356;2024-01-30T06:14:12;37.00;;;20.00;;
78308;SDS011;75657;42.022;21.356;2024-01-30T06:16:38;53.85;;;27.00;;
78308;SDS011;75657;42.022;21.356;2024-01-30T06:19:03;44.15;;;23.45;;
78308;SDS011;75657;42.022;21.356;2024-01-30T06:21:29;42.72;;;20.65;;
78308;SDS011;75657;42.022;21.356;2024-01-30T06:23:55;36.80;;;20.08;;
78308;SDS011;75657;42.022;21.356;2024-01-30T06:26:21;55.63;;;27.23;;
78308;SDS011;75657;42.022;21.356;2024-01-30T06:28:46;54.55;;;27.15;;
78308;SDS011;75657;42.022;21.356;2024-01-30T06:31:12;89.68;;;43.38;;
78308;SDS011;75657;42.022;21.356;2024-01-30T06:33:37;110.90;;;52.63;;
78308;SDS011;75657;42.022;21.356;2024-01-30T06:36:03;138.05;;;56.72;;
78308;SDS011;75657;42.022;21.356;2024-01-30T06:38:28;114.93;;;50.80;;
78308;SDS011;75657;42.022;21.356;2024-01-30T06:40:54;109.88;;;50.10;;
78308;SDS011;75657;42.022;21.356;2024-01-30T06:43:19;96.82;;;43.60;;
78308;SDS011;75657;42.022;21.356;2024-01-30T06:45:45;100.47;;;46.13;;
78308;SDS011;75657;42.022;21.356;2024-01-30T06:48:11;96.93;;;45.88;;
78308;SDS011;75657;42.022;21.356;2024-01-30T06:50:36;83.85;;;39.80;;
78308;SDS011;75657;42.022;21.356;2024-01-30T06:53:02;90.18;;;40.88;;
78308;SDS011;75657;42.022;21.356;2024-01-30T06:55:27;97.93;;;44.63;;
78308;SDS011;75657;42.022;21.356;2024-01-30T06:57:53;114.70;;;54.35;;
78308;SDS011;75657;42.022;21.356;2024-01-30T07:00:18;97.32;;;48.05;;
78308;SDS011;75657;42.022;21.356;2024-01-30T07:02:44;86.32;;;42.88;;
78308;SDS011;75657;42.022;21.356;2024-01-30T07:05:10;87.97;;;42.35;;
78308;SDS011;75657;42.022;21.356;2024-01-30T07:07:35;81.70;;;40.63;;
78308;SDS011;75657;42.022;21.356;2024-01-30T07:10:01;33.33;;;17.10;;
78308;SDS011;75657;42.022;21.356;2024-01-30T07:12:26;22.25;;;13.18;;
78308;SDS011;75657;42.022;21.356;2024-01-30T07:14:52;22.98;;;11.43;;
78308;SDS011;75657;42.022;21.356;2024-01-30T07:17:17;17.65;;;10.10;;
78308;SDS011;75657;42.022;21.356;2024-01-30T07:19:43;15.82;;;9.80;;
78308;SDS011;75657;42.022;21.356;2024-01-30T07:22:08;19.55;;;9.70;;
78308;SDS011;75657;42.022;21.356;2024-01-30T07:24:34;17.75;;;10.30;;
78308;SDS011;75657;42.022;21.356;2024-01-30T07:26:59;18.58;;;10.25;;
78308;SDS011;75657;42.022;21.356;2024-01-30T07:29:25;21.65;;;10.75;;
78308;SDS011;75657;42.022;21.356;2024-01-30T07:31:50;24.02;;;10.93;;
78308;SDS011;75657;42.022;21.356;2024-01-30T07:34:16;15.05;;;9.40;;
78308;SDS011;75657;42.022;21.356;2024-01-30T07:36:41;16.45;;;9.18;;
78308;SDS011;75657;42.022;21.356;2024-01-30T07:39:07;19.20;;;10.52;;
78308;SDS011;75657;42.022;21.356;2024-01-30T07:41:32;21.27;;;10.60;;
78308;SDS011;75657;42.022;21.356;2024-01-30T07:43:58;16.80;;;9.73;;
78308;SDS011;75657;42.022;21.356;2024-01-30T07:46:23;18.98;;;10.20;;
78308;SDS011;75657;42.022;21.356;2024-01-30T07:48:49;13.75;;;8.20;;
78308;SDS011;75657;42.022;21.356;2024-01-30T07:51:18;16.58;;;10.57;;
78308;SDS011;75657;42.022;21.356;2024-01-30T07:53:43;13.45;;;9.02;;
78308;SDS011;75657;42.022;21.356;2024-01-30T07:56:10;14.80;;;8.38;;
78308;SDS011;75657;42.022;21.356;2024-01-30T07:58:35;13.10;;;8.68;;
78308;SDS011;75657;42.022;21.356;2024-01-30T08:01:02;12.57;;;7.80;;
78308;SDS011;75657;42.022;21.356;2024-01-30T08:03:28;13.55;;;7.68;;
78308;SDS011;75657;42.022;21.356;2024-01-30T08:05:53;16.85;;;10.05;;
78308;SDS011;75657;42.022;21.356;2024-01-30T08:08:19;14.50;;;8.35;;
78308;SDS011;75657;42.022;21.356;2024-01-30T08:10:44;14.57;;;8.38;;
78308;SDS011;75657;42.022;21.356;2024-01-30T08:13:10;11.25;;;7.57;;
78308;SDS011;75657;42.022;21.356;2024-01-30T08:15:35;12.38;;;6.68;;
78308;SDS011;75657;42.022;21.356;2024-01-30T08:18:00;12.55;;;6.20;;
78308;SDS011;75657;42.022;21.356;2024-01-30T08:20:26;13.98;;;6.88;;
78308;SDS011;75657;42.022;21.356;2024-01-30T08:22:52;13.77;;;7.05;;
78308;SDS011;75657;42.022;21.356;2024-01-30T08:25:17;13.70;;;6.70;;
78308;SDS011;75657;42.022;21.356;2024-01-30T08:27:43;12.70;;;7.38;;
78308;SDS011;75657;42.022;21.356;2024-01-30T08:30:10;12.85;;;7.47;;
78308;SDS011;75657;42.022;21.356;2024-01-30T08:32:35;11.63;;;7.63;;
78308;SDS011;75657;42.022;21.356;2024-01-30T08:35:01;12.90;;;7.60;;
78308;SDS011;75657;42.022;21.356;2024-01-30T08:37:29;13.73;;;8.40;;
78308;SDS011;75657;42.022;21.356;2024-01-30T08:39:55;17.85;;;7.55;;
78308;SDS011;75657;42.022;21.356;2024-01-30T08:42:20;11.57;;;7.10;;
78308;SDS011;75657;42.022;21.356;2024-01-30T08:44:47;12.73;;;7.13;;
78308;SDS011;75657;42.022;21.356;2024-01-30T08:49:43;10.05;;;6.90;;
78308;SDS011;75657;42.022;21.356;2024-01-30T08:52:10;12.75;;;8.13;;
78308;SDS011;75657;42.022;21.356;2024-01-30T08:54:36;17.40;;;10.75;;
78308;SDS011;75657;42.022;21.356;2024-01-30T08:57:01;13.60;;;8.40;;
78308;SDS011;75657;42.022;21.356;2024-01-30T08:59:27;21.15;;;8.38;;
78308;SDS011;75657;42.022;21.356;2024-01-30T09:01:52;13.35;;;8.27;;
78308;SDS011;75657;42.022;21.356;2024-01-30T09:04:20;13.25;;;7.32;;
78308;SDS011;75657;42.022;21.356;2024-01-30T09:06:46;14.13;;;7.25;;
78308;SDS011;75657;42.022;21.356;2024-01-30T09:09:12;11.18;;;6.55;;
78308;SDS011;75657;42.022;21.356;2024-01-30T09:11:38;11.25;;;7.20;;
78308;SDS011;75657;42.022;21.356;2024-01-30T09:14:03;9.63;;;6.70;;
78308;SDS011;75657;42.022;21.356;2024-01-30T09:16:29;11.35;;;6.47;;
78308;SDS011;75657;42.022;21.356;2024-01-30T09:18:54;10.55;;;5.90;;
78308;SDS011;75657;42.022;21.356;2024-01-30T09:21:20;9.70;;;5.32;;
78308;SDS011;75657;42.022;21.356;2024-01-30T09:23:45;10.13;;;6.32;;
78308;SDS011;75657;42.022;21.356;2024-01-30T09:26:11;8.98;;;5.07;;
78308;SDS011;75657;42.022;21.356;2024-01-30T09:28:37;9.82;;;5.97;;
78308;SDS011;75657;42.022;21.356;2024-01-30T09:31:03;10.80;;;6.35;;
78308;SDS011;75657;42.022;21.356;2024-01-30T09:33:29;9.90;;;5.88;;
78308;SDS011;75657;42.022;21.356;2024-01-30T09:35:54;8.13;;;5.70;;
78308;SDS011;75657;42.022;21.356;2024-01-30T09:38:20;11.43;;;6.25;;
78308;SDS011;75657;42.022;21.356;2024-01-30T09:40:47;10.57;;;5.72;;
78308;SDS011;75657;42.022;21.356;2024-01-30T09:43:18;11.82;;;6.90;;
78308;SDS011;75657;42.022;21.356;2024-01-30T09:45:47;12.05;;;5.90;;
78308;SDS011;75657;42.022;21.356;2024-01-30T09:48:15;13.00;;;8.38;;
78308;SDS011;75657;42.022;21.356;2024-01-30T09:50:40;12.85;;;8.88;;
78308;SDS011;75657;42.022;21.356;2024-01-30T09:53:06;9.52;;;5.80;;
78308;SDS011;75657;42.022;21.356;2024-01-30T09:55:34;9.90;;;5.82;;
78308;SDS011;75657;42.022;21.356;2024-01-30T09:58:01;10.63;;;5.70;;
78308;SDS011;75657;42.022;21.356;2024-01-30T10:00:26;10.15;;;6.78;;
78308;SDS011;75657;42.022;21.356;2024-01-30T10:02:52;9.32;;;5.53;;
78308;SDS011;75657;42.022;21.356;2024-01-30T10:05:18;8.85;;;5.70;;
78308;SDS011;75657;42.022;21.356;2024-01-30T10:07:54;10.85;;;6.20;;
78308;SDS011;75657;42.022;21.356;2024-01-30T10:10:22;9.07;;;5.65;;
78308;SDS011;75657;42.022;21.356;2024-01-30T10:12:48;9.82;;;6.35;;
78308;SDS011;75657;42.022;21.356;2024-01-30T10:15:14;13.35;;;8.07;;
78308;SDS011;75657;42.022;21.356;2024-01-30T10:17:39;18.48;;;11.15;;
78308;SDS011;75657;42.022;21.356;2024-01-30T10:20:05;15.02;;;8.35;;
78308;SDS011;75657;42.022;21.356;2024-01-30T10:22:31;30.75;;;14.43;;
78308;SDS011;75657;42.022;21.356;2024-01-30T10:24:57;14.45;;;6.82;;
78308;SDS011;75657;42.022;21.356;2024-01-30T10:27:25;12.43;;;7.18;;
78308;SDS011;75657;42.022;21.356;2024-01-30T10:29:52;12.02;;;7.25;;
78308;SDS011;75657;42.022;21.356;2024-01-30T10:32:17;26.45;;;14.90;;
78308;SDS011;75657;42.022;21.356;2024-01-30T10:34:43;11.27;;;6.93;;
78308;SDS011;75657;42.022;21.356;2024-01-30T10:37:09;9.88;;;6.07;;
78308;SDS011;75657;42.022;21.356;2024-01-30T10:39:45;20.17;;;14.73;;
78308;SDS011;75657;42.022;21.356;2024-01-30T10:42:15;9.73;;;5.75;;
78308;SDS011;75657;42.022;21.356;2024-01-30T10:47:29;8.57;;;5.50;;
78308;SDS011;75657;42.022;21.356;2024-01-30T10:49:55;8.05;;;5.15;;
78308;SDS011;75657;42.022;21.356;2024-01-30T10:52:24;8.30;;;4.97;;
78308;SDS011;75657;42.022;21.356;2024-01-30T10:54:51;10.52;;;5.82;;
78308;SDS011;75657;42.022;21.356;2024-01-30T10:57:17;9.00;;;5.53;;
78308;SDS011;75657;42.022;21.356;2024-01-30T10:59:43;9.18;;;5.35;;
78308;SDS011;75657;42.022;21.356;2024-01-30T11:02:10;11.05;;;6.13;;
78308;SDS011;75657;42.022;21.356;2024-01-30T11:04:42;12.30;;;6.05;;
78308;SDS011;75657;42.022;21.356;2024-01-30T11:09:48;7.72;;;4.97;;
78308;SDS011;75657;42.022;21.356;2024-01-30T11:12:14;7.30;;;4.30;;
78308;SDS011;75657;42.022;21.356;2024-01-30T11:14:40;15.25;;;6.63;;
78308;SDS011;75657;42.022;21.356;2024-01-30T11:17:05;7.38;;;4.97;;
78308;SDS011;75657;42.022;21.356;2024-01-30T11:19:31;8.85;;;5.15;;
78308;SDS011;75657;42.022;21.356;2024-01-30T11:21:59;7.00;;;4.30;;
78308;SDS011;75657;42.022;21.356;2024-01-30T11:24:25;7.63;;;4.50;;
78308;SDS011;75657;42.022;21.356;2024-01-30T11:26:57;7.80;;;4.72;;
78308;SDS011;75657;42.022;21.356;2024-01-30T11:29:27;6.75;;;3.97;;
78308;SDS011;75657;42.022;21.356;2024-01-30T11:31:56;6.50;;;4.32;;
78308;SDS011;75657;42.022;21.356;2024-01-30T11:34:23;7.43;;;4.32;;
78308;SDS011;75657;42.022;21.356;2024-01-30T11:36:56;6.40;;;4.35;;
78308;SDS011;75657;42.022;21.356;2024-01-30T11:39:30;6.68;;;4.60;;
78308;SDS011;75657;42.022;21.356;2024-01-30T11:41:56;6.72;;;3.25;;
78308;SDS011;75657;42.022;21.356;2024-01-30T11:44:23;6.47;;;4.30;;
78308;SDS011;75657;42.022;21.356;2024-01-30T11:46:49;8.05;;;4.93;;
78308;SDS011;75657;42.022;21.356;2024-01-30T11:49:16;9.50;;;5.32;;
78308;SDS011;75657;42.022;21.356;2024-01-30T11:51:42;8.00;;;4.57;;
78308;SDS011;75657;42.022;21.356;2024-01-30T11:54:08;6.38;;;4.30;;
78308;SDS011;75657;42.022;21.356;2024-01-30T11:56:34;8.85;;;4.47;;
78308;SDS011;75657;42.022;21.356;2024-01-30T11:59:00;6.68;;;3.92;;
78308;SDS011;75657;42.022;21.356;2024-01-30T12:01:26;7.57;;;4.47;;
78308;SDS011;75657;42.022;21.356;2024-01-30T12:03:52;10.40;;;5.43;;
78308;SDS011;75657;42.022;21.356;2024-01-30T12:06:18;5.43;;;3.70;;
78308;SDS011;75657;42.022;21.356;2024-01-30T12:08:55;7.18;;;3.88;;
78308;SDS011;75657;42.022;21.356;2024-01-30T12:11:24;6.40;;;4.03;;
78308;SDS011;75657;42.022;21.356;2024-01-30T12:13:51;7.50;;;5.35;;
78308;SDS011;75657;42.022;21.356;2024-01-30T12:16:17;6.68;;;3.67;;
78308;SDS011;75657;42.022;21.356;2024-01-30T12:18:43;12.75;;;4.75;;
78308;SDS011;75657;42.022;21.356;2024-01-30T12:21:09;19.85;;;10.80;;
78308;SDS011;75657;42.022;21.356;2024-01-30T12:23:34;12.88;;;7.40;;
78308;SDS011;75657;42.022;21.356;2024-01-30T12:26:00;7.20;;;4.20;;
78308;SDS011;75657;42.022;21.356;2024-01-30T12:28:28;7.30;;;4.70;;
78308;SDS011;75657;42.022;21.356;2024-01-30T12:30:55;8.15;;;4.40;;
78308;SDS011;75657;42.022;21.356;2024-01-30T12:33:26;7.82;;;4.07;;
78308;SDS011;75657;42.022;21.356;2024-01-30T12:35:51;5.95;;;3.70;;
78308;SDS011;75657;42.022;21.356;2024-01-30T12:38:17;6.90;;;4.28;;
78308;SDS011;75657;42.022;21.356;2024-01-30T12:40:43;8.48;;;4.55;;
78308;SDS011;75657;42.022;21.356;2024-01-30T12:43:09;7.25;;;4.75;;
78308;SDS011;75657;42.022;21.356;2024-01-30T12:45:35;24.10;;;10.70;;
78308;SDS011;75657;42.022;21.356;2024-01-30T12:48:01;7.63;;;3.83;;
78308;SDS011;75657;42.022;21.356;2024-01-30T12:50:27;13.70;;;7.20;;
78308;SDS011;75657;42.022;21.356;2024-01-30T12:52:52;5.85;;;3.95;;
78308;SDS011;75657;42.022;21.356;2024-01-30T12:55:18;7.40;;;4.82;;
78308;SDS011;75657;42.022;21.356;2024-01-30T12:57:44;9.82;;;5.18;;
78308;SDS011;75657;42.022;21.356;2024-01-30T13:00:09;6.88;;;4.22;;
78308;SDS011;75657;42.022;21.356;2024-01-30T13:02:35;8.18;;;4.88;;
78308;SDS011;75657;42.022;21.356;2024-01-30T13:05:02;11.00;;;6.35;;
78308;SDS011;75657;42.022;21.356;2024-01-30T13:07:28;6.90;;;3.45;;
78308;SDS011;75657;42.022;21.356;2024-01-30T13:09:54;9.35;;;5.15;;
78308;SDS011;75657;42.022;21.356;2024-01-30T13:12:19;8.25;;;4.80;;
78308;SDS011;75657;42.022;21.356;2024-01-30T13:14:45;8.85;;;6.13;;
78308;SDS011;75657;42.022;21.356;2024-01-30T13:17:10;11.75;;;6.63;;
78308;SDS011;75657;42.022;21.356;2024-01-30T13:19:36;8.85;;;5.78;;
78308;SDS011;75657;42.022;21.356;2024-01-30T13:22:01;9.82;;;5.55;;
78308;SDS011;75657;42.022;21.356;2024-01-30T13:24:27;11.75;;;5.57;;
78308;SDS011;75657;42.022;21.356;2024-01-30T13:26:52;9.88;;;5.95;;
78308;SDS011;75657;42.022;21.356;2024-01-30T13:29:18;12.13;;;6.75;;
78308;SDS011;75657;42.022;21.356;2024-01-30T13:31:43;9.75;;;5.57;;
78308;SDS011;75657;42.022;21.356;2024-01-30T13:34:11;9.30;;;5.13;;
78308;SDS011;75657;42.022;21.356;2024-01-30T13:36:37;12.60;;;6.50;;
78308;SDS011;75657;42.022;21.356;2024-01-30T13:39:03;10.80;;;5.45;;
78308;SDS011;75657;42.022;21.356;2024-01-30T13:41:32;11.50;;;6.40;;
78308;SDS011;75657;42.022;21.356;2024-01-30T13:43:58;12.25;;;6.80;;
78308;SDS011;75657;42.022;21.356;2024-01-30T13:46:23;8.82;;;5.43;;
78308;SDS011;75657;42.022;21.356;2024-01-30T13:48:49;6.45;;;4.07;;
78308;SDS011;75657;42.022;21.356;2024-01-30T13:51:15;10.40;;;5.90;;
78308;SDS011;75657;42.022;21.356;2024-01-30T13:53:42;8.80;;;5.20;;
78308;SDS011;75657;42.022;21.356;2024-01-30T13:56:07;10.68;;;6.32;;
78308;SDS011;75657;42.022;21.356;2024-01-30T13:58:33;8.38;;;5.50;;
78308;SDS011;75657;42.022;21.356;2024-01-30T14:00:59;9.25;;;5.53;;
78308;SDS011;75657;42.022;21.356;2024-01-30T14:03:25;9.13;;;5.85;;
78308;SDS011;75657;42.022;21.356;2024-01-30T14:05:50;8.25;;;4.90;;
78308;SDS011;75657;42.022;21.356;2024-01-30T14:08:16;8.15;;;5.20;;
78308;SDS011;75657;42.022;21.356;2024-01-30T14:10:41;7.07;;;4.63;;
78308;SDS011;75657;42.022;21.356;2024-01-30T14:13:07;10.35;;;5.95;;
78308;SDS011;75657;42.022;21.356;2024-01-30T14:15:32;10.98;;;6.65;;
78308;SDS011;75657;42.022;21.356;2024-01-30T14:17:58;8.02;;;4.72;;
78308;SDS011;75657;42.022;21.356;2024-01-30T14:20:23;7.90;;;4.70;;
78308;SDS011;75657;42.022;21.356;2024-01-30T14:22:49;7.60;;;4.60;;